createdAt,value
2018-12-21T00:02:44.421Z,2.95
2018-12-21T00:05:47.540Z,3.17
2018-12-21T00:08:52.996Z,2.95
2018-12-21T00:11:56.205Z,3.30
2018-12-21T00:14:59.527Z,3.37
2018-12-21T00:18:02.799Z,3.25
2018-12-21T00:21:05.966Z,3.30
2018-12-21T00:24:09.662Z,3.17
2018-12-21T00:27:13.180Z,2.92
2018-12-21T00:30:21.636Z,3.15
2018-12-21T00:33:30.637Z,3.25
2018-12-21T00:36:39.325Z,3.00
2018-12-21T00:39:48.454Z,3.05
2018-12-21T00:42:57.320Z,3.23
2018-12-21T00:46:05.919Z,3.30
2018-12-21T00:49:09.185Z,2.72
2018-12-21T00:52:12.547Z,3.05
2018-12-21T00:55:15.580Z,2.80
2018-12-21T00:58:18.908Z,2.98
2018-12-21T01:01:22.384Z,3.02
2018-12-21T01:04:25.752Z,3.10
2018-12-21T01:07:28.752Z,2.90
2018-12-21T01:10:31.710Z,2.70
2018-12-21T01:13:34.835Z,2.83
2018-12-21T01:16:38.003Z,2.92
2018-12-21T01:19:41.007Z,2.60
2018-12-21T01:22:44.056Z,2.65
2018-12-21T01:25:47.114Z,2.98
2018-12-21T01:28:50.071Z,2.75
2018-12-21T01:31:53.027Z,2.70
2018-12-21T01:34:56.050Z,2.45
2018-12-21T01:37:59.272Z,3.17
2018-12-21T01:41:03.303Z,2.87
2018-12-21T01:44:06.441Z,2.75
2018-12-21T01:47:09.402Z,2.80
2018-12-21T01:50:12.675Z,2.33
2018-12-21T01:53:16.435Z,2.27
2018-12-21T01:56:20.991Z,2.47
2018-12-21T01:59:24.570Z,2.70
2018-12-21T02:02:28.116Z,2.52
2018-12-21T02:05:32.650Z,2.70
2018-12-21T02:08:36.559Z,2.80
2018-12-21T02:11:40.038Z,2.70
2018-12-21T02:14:43.811Z,2.50
2018-12-21T02:17:47.369Z,2.47
2018-12-21T02:20:50.978Z,2.42
2018-12-21T02:23:54.429Z,2.45
2018-12-21T02:26:58.134Z,2.27
2018-12-21T02:30:01.510Z,2.90
2018-12-21T02:33:05.141Z,2.90
2018-12-21T02:36:08.648Z,2.50
2018-12-21T02:39:12.338Z,2.90
2018-12-21T02:42:16.128Z,2.63
2018-12-21T02:45:19.141Z,2.42
2018-12-21T02:48:22.529Z,2.30
2018-12-21T02:51:25.899Z,2.30
2018-12-21T02:54:29.231Z,2.50
2018-12-21T02:57:33.063Z,2.40
2018-12-21T03:00:36.714Z,2.50
2018-12-21T03:03:40.284Z,2.40
2018-12-21T03:06:43.684Z,2.40
2018-12-21T03:09:47.110Z,2.23
2018-12-21T03:12:51.975Z,2.40
2018-12-21T03:15:55.336Z,2.40
2018-12-21T03:18:59.433Z,2.07
2018-12-21T03:22:02.972Z,2.23
2018-12-21T03:25:06.410Z,2.30
2018-12-21T03:28:10.737Z,2.07
2018-12-21T03:31:15.697Z,2.10
2018-12-21T03:34:19.497Z,2.13
2018-12-21T03:37:23.456Z,2.07
2018-12-21T03:40:26.966Z,2.10
2018-12-21T03:43:30.340Z,2.10
2018-12-21T03:46:33.591Z,2.10
2018-12-21T03:49:38.905Z,2.10
2018-12-21T03:52:43.500Z,2.07
2018-12-21T03:55:47.664Z,1.87
2018-12-21T03:58:51.246Z,2.03
2018-12-21T04:01:55.371Z,1.95
2018-12-21T04:04:58.582Z,2.10
2018-12-21T04:08:01.715Z,1.98
2018-12-21T04:11:04.762Z,2.17
2018-12-21T04:14:07.964Z,2.07
2018-12-21T04:17:11.053Z,2.10
2018-12-21T04:20:14.408Z,1.75
2018-12-21T04:23:17.431Z,1.95
2018-12-21T04:26:20.448Z,2.20
2018-12-21T04:29:23.523Z,1.87
2018-12-21T04:32:26.495Z,1.77
2018-12-21T04:35:29.668Z,1.90
2018-12-21T04:38:32.966Z,1.90
2018-12-21T04:41:36.043Z,2.03
2018-12-21T04:44:39.143Z,1.80
2018-12-21T04:47:42.092Z,2.00
2018-12-21T04:50:45.155Z,1.73
2018-12-21T04:53:49.298Z,2.00
2018-12-21T04:56:52.511Z,2.20
2018-12-21T04:59:55.619Z,2.00
2018-12-21T05:02:58.644Z,1.70
2018-12-21T05:06:02.745Z,1.63
2018-12-21T05:09:06.413Z,1.40
2018-12-21T05:12:11.503Z,1.90
2018-12-21T05:15:14.608Z,1.80
2018-12-21T05:18:18.667Z,1.87
2018-12-21T05:21:22.808Z,1.87
2018-12-21T05:24:25.814Z,1.70
2018-12-21T05:27:28.972Z,1.70
2018-12-21T05:30:32.204Z,1.80
2018-12-21T05:33:35.191Z,1.87
2018-12-21T05:36:38.627Z,1.93
2018-12-21T05:39:41.720Z,1.77
2018-12-21T05:42:47.971Z,1.72
2018-12-21T05:45:50.934Z,1.70
2018-12-21T05:48:53.904Z,1.67
2018-12-21T05:51:58.036Z,1.73
2018-12-21T05:55:01.222Z,1.80
2018-12-21T05:58:05.234Z,1.50
2018-12-21T06:01:08.294Z,1.70
2018-12-21T06:04:11.444Z,1.40
2018-12-21T06:07:14.619Z,1.60
2018-12-21T06:10:18.727Z,1.80
2018-12-21T06:13:21.717Z,1.83
2018-12-21T06:16:24.758Z,1.47
2018-12-21T06:19:27.705Z,1.67
2018-12-21T06:22:31.761Z,1.80
2018-12-21T06:25:35.203Z,1.40
2018-12-21T06:28:38.205Z,1.70
2018-12-21T06:31:41.435Z,1.70
2018-12-21T06:34:44.704Z,1.60
2018-12-21T06:37:49.721Z,1.70
2018-12-21T06:40:52.668Z,1.67
2018-12-21T06:43:55.793Z,1.60
2018-12-21T06:46:59.821Z,1.40
2018-12-21T06:50:03.123Z,1.57
2018-12-21T06:53:06.364Z,1.60
2018-12-21T06:56:09.402Z,1.50
2018-12-21T06:59:12.542Z,1.73
2018-12-21T07:02:15.667Z,1.67
2018-12-21T07:05:18.859Z,1.73
2018-12-21T07:08:21.855Z,1.50
2018-12-21T07:11:25.388Z,1.53
2018-12-21T07:14:29.130Z,1.70
2018-12-21T07:17:32.750Z,1.72
2018-12-21T07:20:36.382Z,1.70
2018-12-21T07:23:40.864Z,1.50
2018-12-21T07:26:44.322Z,1.70
2018-12-21T07:29:48.196Z,1.80
2018-12-21T07:32:52.149Z,1.70
2018-12-21T07:35:55.871Z,1.67
2018-12-21T07:38:59.512Z,1.50
2018-12-21T07:42:03.259Z,1.60
2018-12-21T07:45:08.209Z,1.80
2018-12-21T07:48:11.843Z,1.40
2018-12-21T07:51:16.392Z,1.80
2018-12-21T07:54:20.018Z,1.77
2018-12-21T07:57:23.665Z,1.60
2018-12-21T08:00:27.235Z,1.60
2018-12-21T08:03:30.411Z,1.67
2018-12-21T08:06:33.842Z,1.63
2018-12-21T08:09:37.068Z,1.50
2018-12-21T08:12:41.048Z,1.77
2018-12-21T08:15:44.650Z,1.60
2018-12-21T08:18:48.247Z,1.40
2018-12-21T08:21:51.696Z,1.50
2018-12-21T08:24:55.081Z,1.75
2018-12-21T08:27:58.695Z,1.60
2018-12-21T08:31:02.209Z,1.80
2018-12-21T08:34:05.739Z,1.60
2018-12-21T08:37:09.037Z,1.90
2018-12-21T08:40:12.515Z,1.57
2018-12-21T08:43:16.003Z,1.70
2018-12-21T08:46:19.596Z,1.80
2018-12-21T08:49:22.886Z,1.90
2018-12-21T08:52:26.463Z,1.60
2018-12-21T08:55:29.734Z,1.70
2018-12-21T08:58:33.188Z,1.75
2018-12-21T09:01:37.691Z,1.67
2018-12-21T09:04:41.445Z,2.10
2018-12-21T09:07:45.203Z,1.80
2018-12-21T09:10:48.693Z,1.70
2018-12-21T09:13:54.580Z,1.77
2018-12-21T09:16:58.082Z,1.70
2018-12-21T09:20:01.817Z,1.77
2018-12-21T09:23:05.328Z,1.70
2018-12-21T09:26:09.755Z,2.00
2018-12-21T09:29:13.401Z,1.77
2018-12-21T09:32:16.885Z,1.80
2018-12-21T09:35:20.623Z,1.80
2018-12-21T09:38:24.299Z,1.67
2018-12-21T09:41:27.540Z,1.73
2018-12-21T09:44:31.010Z,1.70
2018-12-21T09:47:34.390Z,1.53
2018-12-21T09:50:39.048Z,1.87
2018-12-21T09:53:42.363Z,1.73
2018-12-21T09:56:45.827Z,1.67
2018-12-21T09:59:49.083Z,1.80
2018-12-21T10:02:52.665Z,1.60
2018-12-21T10:05:56.431Z,1.57
2018-12-21T10:09:00.109Z,1.60
2018-12-21T10:12:04.267Z,1.70
2018-12-21T10:15:08.959Z,1.80
2018-12-21T10:18:12.668Z,1.60
2018-12-21T10:21:16.236Z,1.42
2018-12-21T10:24:19.395Z,1.80
2018-12-21T10:27:23.427Z,1.47
2018-12-21T10:30:27.225Z,2.00
2018-12-21T10:33:30.835Z,2.15
2018-12-21T10:36:34.482Z,1.80
2018-12-21T10:39:38.088Z,1.90
2018-12-21T10:42:41.547Z,1.70
2018-12-21T10:45:46.108Z,2.20
2018-12-21T10:48:49.658Z,2.17
2018-12-21T10:51:53.102Z,1.57
2018-12-21T10:54:58.810Z,1.57
2018-12-21T10:58:02.389Z,1.90
2018-12-21T11:01:05.831Z,1.63
2018-12-21T11:04:09.443Z,1.80
2018-12-21T11:07:12.928Z,1.80
2018-12-21T11:10:16.324Z,1.70
2018-12-21T11:13:23.908Z,1.90
2018-12-21T11:16:27.344Z,1.67
2018-12-21T11:19:30.972Z,1.70
2018-12-21T11:22:34.518Z,1.60
2018-12-21T11:25:37.826Z,1.60
2018-12-21T11:28:41.111Z,1.80
2018-12-21T11:31:45.216Z,1.60
2018-12-21T11:34:48.343Z,1.87
2018-12-21T11:37:52.456Z,1.90
2018-12-21T11:40:55.474Z,2.00
2018-12-21T11:43:59.567Z,1.87
2018-12-21T11:47:02.696Z,1.70
2018-12-21T11:50:07.809Z,2.00
2018-12-21T11:53:11.915Z,1.77
2018-12-21T11:56:15.046Z,1.73
2018-12-21T11:59:18.066Z,1.60
2018-12-21T12:02:22.199Z,1.57
2018-12-21T12:05:25.298Z,1.90
2018-12-21T12:08:28.500Z,1.80
2018-12-21T12:11:31.563Z,1.90
2018-12-21T12:14:34.595Z,1.77
2018-12-21T12:17:37.751Z,1.53
2018-12-21T12:20:40.867Z,1.70
2018-12-21T12:23:44.997Z,1.30
2018-12-21T12:26:48.068Z,1.50
2018-12-21T12:29:51.167Z,1.80
2018-12-21T12:32:54.238Z,1.80
2018-12-21T12:35:58.345Z,1.83
2018-12-21T12:39:01.332Z,1.90
2018-12-21T12:45:17.525Z,1.67
2018-12-21T12:48:20.827Z,1.60
2018-12-21T12:51:23.958Z,1.82
2018-12-21T12:54:27.323Z,1.98
2018-12-21T12:57:30.423Z,1.90
2018-12-21T13:00:33.607Z,2.10
2018-12-21T13:03:36.906Z,1.50
2018-12-21T13:06:41.140Z,2.07
2018-12-21T13:09:48.023Z,1.60
2018-12-21T13:12:51.289Z,2.13
2018-12-21T13:16:00.463Z,2.15
2018-12-21T13:19:03.513Z,1.97
2018-12-21T13:22:07.656Z,1.70
2018-12-21T13:25:17.306Z,1.90
2018-12-21T13:28:21.517Z,2.00
2018-12-21T13:31:24.812Z,1.87
2018-12-21T13:34:28.011Z,1.98
2018-12-21T13:37:32.070Z,2.00
2018-12-21T13:40:37.323Z,2.10
2018-12-21T13:43:40.279Z,2.17
2018-12-21T13:46:43.381Z,1.90
2018-12-21T13:49:46.544Z,2.20
2018-12-21T13:52:49.628Z,2.00
2018-12-21T13:55:53.776Z,2.07
2018-12-21T13:58:56.908Z,1.87
2018-12-21T14:02:00.051Z,2.10
2018-12-21T14:05:03.162Z,1.83
2018-12-21T14:08:07.309Z,1.77
2018-12-21T14:11:11.454Z,1.60
2018-12-21T14:14:16.845Z,2.00
2018-12-21T14:17:23.799Z,1.60
2018-12-21T14:20:26.799Z,1.77
2018-12-21T14:23:29.967Z,1.87
2018-12-21T14:26:32.976Z,2.03
2018-12-21T14:29:36.156Z,1.80
2018-12-21T14:32:41.194Z,2.05
2018-12-21T14:35:44.299Z,1.50
2018-12-21T14:38:47.476Z,1.87
2018-12-21T14:41:50.533Z,1.92
2018-12-21T14:44:53.562Z,1.90
2018-12-21T14:47:57.695Z,1.90
2018-12-21T14:51:01.791Z,1.75
2018-12-21T14:54:04.914Z,2.10
2018-12-21T14:57:08.074Z,2.15
2018-12-21T15:00:13.230Z,1.82
2018-12-21T15:03:16.322Z,1.98
2018-12-21T15:06:20.340Z,1.80
2018-12-21T15:09:23.583Z,1.77
2018-12-21T15:12:26.815Z,1.70
2018-12-21T15:15:30.024Z,2.08
2018-12-21T15:18:33.144Z,2.00
2018-12-21T15:21:36.199Z,1.47
2018-12-21T15:24:39.435Z,1.55
2018-12-21T15:27:43.392Z,1.98
2018-12-21T15:30:46.493Z,1.60
2018-12-21T15:33:49.698Z,1.77
2018-12-21T15:36:52.683Z,1.67
2018-12-21T15:39:55.895Z,1.60
2018-12-21T15:42:58.860Z,2.30
2018-12-21T15:46:02.983Z,2.27
2018-12-21T15:49:06.088Z,1.90
2018-12-21T15:52:09.438Z,1.98
2018-12-21T15:55:12.630Z,1.90
2018-12-21T15:58:15.866Z,1.87
2018-12-21T16:01:18.858Z,2.00
2018-12-21T16:04:22.147Z,1.72
2018-12-21T16:07:25.250Z,1.85
2018-12-21T16:10:28.435Z,1.70
2018-12-21T16:13:32.443Z,1.87
2018-12-21T16:16:35.535Z,1.90
2018-12-21T16:19:38.775Z,2.00
2018-12-21T16:22:42.625Z,1.95
2018-12-21T16:25:45.943Z,1.90
2018-12-21T16:28:50.239Z,2.08
2018-12-21T16:31:53.227Z,1.62
2018-12-21T16:34:56.359Z,1.87
2018-12-21T16:37:59.570Z,1.85
2018-12-21T16:41:02.757Z,1.77
2018-12-21T16:44:05.704Z,1.62
2018-12-21T16:47:10.108Z,1.90
2018-12-21T16:50:13.809Z,1.35
2018-12-21T16:53:16.930Z,1.65
2018-12-21T16:56:20.029Z,1.98
2018-12-21T16:59:23.148Z,2.10
2018-12-21T17:02:26.212Z,1.80
2018-12-21T17:05:30.311Z,1.80
2018-12-21T17:08:34.568Z,2.12
2018-12-21T17:11:37.552Z,2.33
2018-12-21T17:14:40.649Z,1.72
2018-12-21T17:17:43.909Z,1.77
2018-12-21T17:20:46.999Z,1.50
2018-12-21T17:23:50.632Z,1.82
2018-12-21T17:26:53.807Z,1.70
2018-12-21T17:29:57.936Z,1.90
2018-12-21T17:33:01.044Z,2.00
2018-12-21T17:36:05.222Z,1.52
2018-12-21T17:39:08.685Z,1.95
2018-12-21T17:42:12.779Z,1.60
2018-12-21T17:45:15.859Z,1.70
2018-12-21T17:48:19.944Z,2.15
2018-12-21T17:51:22.960Z,1.70
2018-12-21T17:54:26.052Z,1.72
2018-12-21T17:57:29.038Z,1.40
2018-12-21T18:00:33.033Z,1.55
2018-12-21T18:03:45.822Z,1.20
2018-12-21T18:06:49.039Z,1.60
2018-12-21T18:09:53.231Z,1.57
2018-12-21T18:12:57.538Z,1.60
2018-12-21T18:16:00.784Z,1.10
2018-12-21T18:19:03.775Z,1.15
2018-12-21T18:22:13.551Z,1.40
2018-12-21T18:25:19.996Z,1.37
2018-12-21T18:28:27.313Z,1.10
2018-12-21T18:31:42.776Z,1.30
2018-12-21T18:34:45.839Z,1.57
2018-12-21T18:37:56.282Z,1.35
2018-12-21T18:41:01.259Z,1.25
2018-12-21T18:44:04.314Z,1.30
2018-12-21T18:47:07.547Z,1.15
2018-12-21T18:50:11.707Z,1.50
2018-12-21T18:53:14.851Z,1.12
2018-12-21T18:56:21.923Z,1.20
2018-12-21T18:59:25.044Z,1.17
2018-12-21T19:02:28.308Z,1.20
2018-12-21T19:05:31.330Z,1.12
2018-12-21T19:08:34.394Z,1.22
2018-12-21T19:11:37.495Z,1.10
2018-12-21T19:14:41.923Z,1.00
2018-12-21T19:17:45.351Z,0.95
2018-12-21T19:20:48.324Z,1.17
2018-12-21T19:23:51.293Z,1.00
2018-12-21T19:26:56.527Z,1.10
2018-12-21T19:29:59.522Z,1.20
2018-12-21T19:33:02.502Z,0.93
2018-12-21T19:36:05.612Z,1.10
2018-12-21T19:42:23.436Z,1.10
2018-12-21T19:45:26.444Z,1.10
2018-12-21T19:48:29.531Z,0.90
2018-12-21T19:51:32.633Z,1.17
2018-12-21T19:54:35.972Z,1.00
2018-12-21T19:57:39.012Z,1.20
2018-12-21T20:00:42.135Z,1.20
2018-12-21T20:03:45.310Z,1.02
2018-12-21T20:06:48.401Z,1.10
2018-12-21T20:09:52.404Z,1.00
2018-12-21T20:12:55.586Z,0.93
2018-12-21T20:15:58.783Z,1.10
2018-12-21T20:19:02.072Z,1.00
2018-12-21T20:22:05.275Z,0.78
2018-12-21T20:25:09.752Z,0.70
2018-12-21T20:28:12.799Z,0.90
2018-12-21T20:31:17.117Z,0.70
2018-12-21T20:34:20.219Z,0.82
2018-12-21T20:37:23.207Z,0.85
2018-12-21T20:40:26.171Z,0.78
2018-12-21T20:43:33.287Z,0.80
2018-12-21T20:46:36.411Z,0.80
2018-12-21T20:49:39.719Z,0.53
2018-12-21T20:52:42.851Z,0.85
2018-12-21T20:55:45.828Z,0.80
2018-12-21T20:58:53.395Z,0.80
2018-12-21T21:01:56.659Z,0.93
2018-12-21T21:04:59.726Z,1.15
2018-12-21T21:08:02.923Z,1.00
2018-12-21T21:11:06.926Z,0.60
2018-12-21T21:17:24.338Z,0.80
2018-12-21T21:20:27.378Z,0.50
2018-12-21T21:23:30.502Z,0.70
2018-12-21T21:26:34.487Z,0.72
2018-12-21T21:29:37.711Z,0.70
2018-12-21T21:32:40.867Z,0.70
2018-12-21T21:35:43.932Z,0.90
2018-12-21T21:38:47.871Z,0.60
2018-12-21T21:41:53.104Z,0.80
2018-12-21T21:44:56.239Z,0.98
2018-12-21T21:47:59.182Z,0.80
2018-12-21T21:51:02.353Z,0.70
2018-12-21T21:54:05.401Z,0.90
2018-12-21T21:57:08.478Z,0.82
2018-12-21T22:00:13.217Z,0.90
2018-12-21T22:03:16.233Z,0.60
2018-12-21T22:06:19.455Z,0.98
2018-12-21T22:09:22.462Z,0.70
2018-12-21T22:12:25.495Z,1.00
2018-12-21T22:15:28.551Z,0.80
2018-12-21T22:18:33.575Z,0.70
2018-12-21T22:21:36.656Z,0.80
2018-12-21T22:24:39.855Z,0.60
2018-12-21T22:27:47.948Z,0.80
2018-12-21T22:30:49.822Z,0.70
2018-12-21T22:33:52.944Z,0.88
2018-12-21T22:36:55.983Z,0.90
2018-12-21T22:39:59.015Z,0.80
2018-12-21T22:43:01.984Z,0.72
2018-12-21T22:46:05.056Z,0.90
2018-12-21T22:49:08.336Z,0.90
2018-12-21T22:52:11.362Z,0.75
2018-12-21T22:55:14.358Z,0.70
2018-12-21T22:58:17.338Z,0.93
2018-12-21T23:01:20.809Z,0.70
2018-12-21T23:04:23.814Z,0.90
2018-12-21T23:07:26.819Z,0.90
2018-12-21T23:10:30.941Z,0.70
2018-12-21T23:13:37.704Z,0.68
2018-12-21T23:16:40.891Z,0.90
2018-12-21T23:19:44.104Z,0.70
2018-12-21T23:22:47.290Z,0.80
2018-12-21T23:25:50.326Z,0.80
2018-12-21T23:28:53.575Z,0.75
2018-12-21T23:31:56.571Z,1.10
2018-12-21T23:34:59.752Z,0.80
2018-12-21T23:38:02.747Z,0.80
2018-12-21T23:41:05.739Z,0.90
2018-12-21T23:44:09.862Z,0.90
2018-12-21T23:47:13.073Z,0.80
2018-12-21T23:50:16.178Z,0.70
2018-12-21T23:53:19.227Z,0.80
2018-12-21T23:56:22.327Z,0.78
2018-12-21T23:59:25.579Z,0.90
